createdAt,value
2019-05-21T00:00:26.238Z,93.80
2019-05-21T00:02:54.965Z,94.00
2019-05-21T00:05:23.745Z,93.40
2019-05-21T00:07:52.516Z,92.90
2019-05-21T00:10:21.241Z,93.60
2019-05-21T00:12:49.946Z,93.20
2019-05-21T00:15:18.664Z,93.60
2019-05-21T00:17:47.378Z,93.70
2019-05-21T00:20:17.489Z,94.40
2019-05-21T00:22:46.272Z,93.60
2019-05-21T00:25:17.164Z,93.80
2019-05-21T00:27:45.410Z,94.20
2019-05-21T00:30:50.345Z,93.70
2019-05-21T00:33:55.505Z,94.00
2019-05-21T00:37:01.763Z,95.00
2019-05-21T00:40:07.011Z,93.90
2019-05-21T00:42:38.653Z,93.90
2019-05-21T00:45:09.756Z,94.40
2019-05-21T00:47:38.471Z,93.80
2019-05-21T00:50:08.282Z,93.70
2019-05-21T00:52:37.010Z,93.80
2019-05-21T00:55:07.294Z,93.60
2019-05-21T00:57:36.097Z,94.70
2019-05-21T01:00:06.895Z,94.10
2019-05-21T01:02:35.729Z,93.60
2019-05-21T01:05:05.266Z,93.50
2019-05-21T01:07:33.980Z,94.00
2019-05-21T01:10:02.821Z,94.10
2019-05-21T01:12:31.598Z,94.30
2019-05-21T01:15:00.305Z,93.60
2019-05-21T01:17:29.002Z,93.90
2019-05-21T01:19:57.740Z,93.60
2019-05-21T01:22:26.440Z,93.30
2019-05-21T01:24:55.155Z,94.00
2019-05-21T01:27:23.872Z,93.50
2019-05-21T01:29:52.649Z,93.00
2019-05-21T01:32:21.356Z,93.20
2019-05-21T01:34:50.069Z,94.10
2019-05-21T01:37:18.769Z,94.70
2019-05-21T01:39:47.489Z,94.70
2019-05-21T01:42:16.249Z,94.90
2019-05-21T01:44:44.985Z,95.20
2019-05-21T01:47:13.689Z,95.40
2019-05-21T01:49:42.462Z,96.00
2019-05-21T01:52:11.175Z,95.30
2019-05-21T01:54:39.881Z,94.60
2019-05-21T01:57:08.671Z,96.00
2019-05-21T01:59:37.439Z,96.40
2019-05-21T02:02:06.160Z,94.70
2019-05-21T02:04:34.874Z,96.50
2019-05-21T02:07:03.640Z,97.00
2019-05-21T02:09:34.007Z,96.40
2019-05-21T02:12:02.718Z,96.80
2019-05-21T02:14:31.505Z,97.00
2019-05-21T02:17:00.216Z,96.10
2019-05-21T02:19:28.933Z,95.00
2019-05-21T02:21:57.709Z,95.40
2019-05-21T02:24:26.432Z,94.90
2019-05-21T02:26:55.133Z,96.70
2019-05-21T02:29:23.857Z,97.40
2019-05-21T02:31:52.625Z,97.30
2019-05-21T02:34:21.361Z,95.90
2019-05-21T02:36:50.132Z,95.50
2019-05-21T02:39:18.833Z,95.30
2019-05-21T02:41:47.621Z,95.50
2019-05-21T02:44:16.395Z,94.40
2019-05-21T02:46:45.106Z,95.80
2019-05-21T02:49:13.809Z,96.30
2019-05-21T02:51:42.530Z,96.20
2019-05-21T02:54:11.309Z,95.50
2019-05-21T02:56:40.081Z,95.30
2019-05-21T02:59:08.879Z,94.80
2019-05-21T03:01:39.218Z,96.30
2019-05-21T03:04:08.043Z,95.70
2019-05-21T03:06:36.770Z,96.00
2019-05-21T03:09:06.441Z,96.30
2019-05-21T03:11:35.259Z,96.10
2019-05-21T03:14:03.969Z,95.60
2019-05-21T03:16:32.766Z,95.90
2019-05-21T03:19:01.468Z,95.80
2019-05-21T03:21:30.189Z,95.50
2019-05-21T03:23:58.968Z,95.30
2019-05-21T03:26:27.692Z,95.30
2019-05-21T03:28:56.414Z,94.80
2019-05-21T03:31:25.148Z,95.20
2019-05-21T03:33:53.919Z,95.20
2019-05-21T03:36:33.489Z,95.30
2019-05-21T03:38:53.074Z,94.70
2019-05-21T03:41:21.791Z,94.80
2019-05-21T03:43:50.501Z,95.30
2019-05-21T03:46:19.317Z,95.00
2019-05-21T03:48:48.021Z,95.10
2019-05-21T03:51:17.362Z,95.00
2019-05-21T03:53:46.073Z,94.50
2019-05-21T03:56:14.779Z,94.90
2019-05-21T03:58:43.505Z,94.80
2019-05-21T04:01:12.209Z,94.50
2019-05-21T04:03:41.003Z,94.30
2019-05-21T04:06:09.816Z,94.60
2019-05-21T04:08:38.533Z,94.20
2019-05-21T04:11:07.314Z,94.50
2019-05-21T04:13:36.063Z,94.00
2019-05-21T04:16:12.663Z,94.40
2019-05-21T04:18:49.241Z,94.30
2019-05-21T04:21:17.968Z,94.50
2019-05-21T04:23:46.665Z,93.50
2019-05-21T04:26:15.414Z,94.00
2019-05-21T04:28:44.206Z,93.40
2019-05-21T04:31:12.972Z,93.30
2019-05-21T04:33:41.702Z,93.50
2019-05-21T04:36:10.483Z,93.20
2019-05-21T04:38:39.282Z,92.60
2019-05-21T04:41:08.002Z,91.90
2019-05-21T04:43:36.709Z,92.20
2019-05-21T04:46:05.452Z,92.50
2019-05-21T04:48:34.208Z,92.40
2019-05-21T04:51:02.922Z,91.60
2019-05-21T04:53:31.651Z,91.20
2019-05-21T04:56:00.419Z,90.70
2019-05-21T04:58:29.249Z,90.50
2019-05-21T05:00:58.010Z,89.70
2019-05-21T05:03:26.721Z,88.60
2019-05-21T05:05:55.441Z,88.90
2019-05-21T05:08:24.226Z,88.80
2019-05-21T05:10:52.947Z,86.20
2019-05-21T05:13:21.666Z,86.20
2019-05-21T05:15:50.449Z,83.90
2019-05-21T05:18:19.193Z,84.20
2019-05-21T05:20:47.965Z,83.40
2019-05-21T05:23:16.689Z,83.10
2019-05-21T05:25:45.409Z,80.80
2019-05-21T05:28:14.123Z,79.60
2019-05-21T05:30:42.841Z,80.10
2019-05-21T05:33:11.554Z,79.90
2019-05-21T05:35:40.329Z,78.90
2019-05-21T05:38:09.047Z,77.90
2019-05-21T05:40:37.821Z,76.20
2019-05-21T05:43:06.545Z,76.10
2019-05-21T05:45:35.257Z,75.60
2019-05-21T05:48:04.031Z,74.60
2019-05-21T05:50:46.566Z,75.50
2019-05-21T05:53:36.185Z,73.10
2019-05-21T05:56:04.957Z,70.60
2019-05-21T05:58:33.666Z,70.00
2019-05-21T06:01:02.501Z,71.20
2019-05-21T06:03:31.170Z,69.50
2019-05-21T06:06:00.018Z,70.60
2019-05-21T06:08:28.703Z,69.00
2019-05-21T06:10:57.401Z,68.10
2019-05-21T06:13:26.132Z,68.20
2019-05-21T06:15:54.846Z,66.80
2019-05-21T06:18:23.552Z,66.10
2019-05-21T06:20:52.341Z,66.40
2019-05-21T06:23:21.053Z,67.30
2019-05-21T06:25:49.781Z,65.50
2019-05-21T06:28:18.558Z,63.30
2019-05-21T06:30:47.358Z,62.60
2019-05-21T06:33:16.162Z,61.50
2019-05-21T06:35:45.422Z,61.10
2019-05-21T06:38:18.212Z,61.80
2019-05-21T06:40:44.437Z,59.50
2019-05-21T06:43:13.206Z,59.60
2019-05-21T06:45:41.928Z,59.50
2019-05-21T06:48:10.707Z,58.80
2019-05-21T06:50:39.437Z,56.90
2019-05-21T06:53:08.224Z,58.00
2019-05-21T06:55:36.951Z,56.60
2019-05-21T06:58:05.658Z,55.70
2019-05-21T07:00:34.436Z,55.20
2019-05-21T07:03:03.163Z,54.70
2019-05-21T07:05:31.878Z,55.50
2019-05-21T07:08:00.608Z,54.00
2019-05-21T07:10:29.314Z,53.40
2019-05-21T07:12:58.025Z,53.30
2019-05-21T07:15:26.757Z,54.30
2019-05-21T07:17:55.531Z,52.80
2019-05-21T07:20:24.248Z,52.10
2019-05-21T07:22:53.133Z,51.20
2019-05-21T07:25:22.113Z,51.10
2019-05-21T07:27:50.833Z,52.20
2019-05-21T07:30:19.719Z,50.40
2019-05-21T07:32:48.482Z,49.50
2019-05-21T07:35:17.243Z,50.20
2019-05-21T07:37:45.954Z,51.50
2019-05-21T07:40:15.272Z,50.00
2019-05-21T07:42:44.061Z,49.10
2019-05-21T07:45:12.945Z,49.70
2019-05-21T07:47:41.722Z,49.60
2019-05-21T07:50:10.548Z,48.70
2019-05-21T07:52:39.270Z,47.80
2019-05-21T07:55:08.085Z,48.30
2019-05-21T07:57:36.866Z,45.20
2019-05-21T08:00:07.141Z,44.80
2019-05-21T08:02:35.864Z,45.20
2019-05-21T08:05:04.972Z,45.30
2019-05-21T08:07:33.815Z,43.70
2019-05-21T08:10:02.636Z,40.60
2019-05-21T08:12:38.816Z,41.30
2019-05-21T08:15:02.434Z,40.10
2019-05-21T08:17:31.207Z,38.70
2019-05-21T08:20:08.800Z,37.70
2019-05-21T08:22:30.350Z,37.60
2019-05-21T08:24:59.062Z,37.20
2019-05-21T08:27:27.857Z,35.00
2019-05-21T08:29:56.562Z,34.70
2019-05-21T08:32:25.350Z,35.00
2019-05-21T08:34:54.433Z,34.80
2019-05-21T08:37:23.204Z,34.70
2019-05-21T08:39:51.945Z,35.90
2019-05-21T08:42:20.665Z,32.80
2019-05-21T08:44:49.384Z,33.70
2019-05-21T08:47:18.097Z,33.10
2019-05-21T08:49:46.806Z,32.10
2019-05-21T08:52:15.515Z,31.00
2019-05-21T08:54:47.760Z,31.90
2019-05-21T08:57:16.527Z,29.60
2019-05-21T08:59:45.412Z,30.40
2019-05-21T09:02:14.189Z,29.00
2019-05-21T09:04:46.166Z,32.20
2019-05-21T09:07:13.554Z,31.00
2019-05-21T09:09:50.098Z,32.20
2019-05-21T09:12:12.978Z,33.00
2019-05-21T09:14:41.727Z,32.60
2019-05-21T09:17:10.409Z,33.80
2019-05-21T09:19:39.181Z,32.10
2019-05-21T09:22:07.978Z,32.10
2019-05-21T09:24:36.689Z,32.90
2019-05-21T09:27:05.465Z,35.30
2019-05-21T09:29:34.297Z,35.60
2019-05-21T09:32:03.114Z,37.40
2019-05-21T09:34:47.348Z,38.80
2019-05-21T09:37:02.178Z,38.10
2019-05-21T09:39:30.957Z,39.60
2019-05-21T09:41:59.673Z,41.50
2019-05-21T09:44:28.383Z,41.70
2019-05-21T09:46:57.106Z,43.00
2019-05-21T09:49:25.817Z,42.90
2019-05-21T09:51:54.523Z,42.10
2019-05-21T09:54:23.282Z,42.10
2019-05-21T09:56:52.071Z,41.20
2019-05-21T09:59:31.472Z,41.40
2019-05-21T10:02:07.843Z,42.70
2019-05-21T10:04:36.560Z,42.70
2019-05-21T10:07:05.361Z,40.40
2019-05-21T10:09:34.095Z,40.90
2019-05-21T10:12:03.171Z,39.60
2019-05-21T10:14:34.133Z,40.50
2019-05-21T10:17:02.353Z,39.20
2019-05-21T10:19:31.062Z,38.80
2019-05-21T10:21:59.854Z,36.20
2019-05-21T10:24:28.625Z,36.10
2019-05-21T10:26:57.337Z,36.40
2019-05-21T10:29:26.128Z,35.00
2019-05-21T10:31:54.768Z,33.40
2019-05-21T10:34:23.482Z,31.80
2019-05-21T10:36:52.202Z,33.20
2019-05-21T10:39:20.927Z,32.20
2019-05-21T10:41:49.649Z,31.70
2019-05-21T10:44:18.424Z,30.00
2019-05-21T10:46:47.147Z,29.70
2019-05-21T10:49:15.863Z,29.40
2019-05-21T10:51:44.641Z,28.40
2019-05-21T10:54:13.360Z,29.20
2019-05-21T10:56:48.074Z,28.50
2019-05-21T10:59:12.584Z,28.70
2019-05-21T11:01:42.980Z,29.60
2019-05-21T11:04:13.402Z,28.70
2019-05-21T11:06:43.737Z,29.30
2019-05-21T11:09:22.571Z,28.50
2019-05-21T11:11:51.353Z,28.00
2019-05-21T11:14:20.067Z,27.70
2019-05-21T11:16:48.866Z,27.20
2019-05-21T11:19:17.657Z,27.40
2019-05-21T11:21:46.416Z,27.00
2019-05-21T11:24:15.207Z,27.80
2019-05-21T11:26:43.906Z,27.80
2019-05-21T11:29:12.693Z,28.80
2019-05-21T11:31:55.936Z,28.10
2019-05-21T11:34:11.876Z,28.70
2019-05-21T11:36:40.578Z,28.90
2019-05-21T11:39:09.691Z,27.70
2019-05-21T11:41:38.476Z,28.50
2019-05-21T11:44:07.175Z,27.60
2019-05-21T11:46:35.895Z,27.40
2019-05-21T11:49:04.613Z,28.40
2019-05-21T11:51:33.323Z,29.00
2019-05-21T11:54:02.029Z,28.70
2019-05-21T11:56:30.799Z,28.00
2019-05-21T11:58:59.515Z,27.00
2019-05-21T12:01:28.294Z,27.20
2019-05-21T12:03:57.079Z,27.60
2019-05-21T12:06:25.797Z,27.90
2019-05-21T12:08:57.110Z,27.40
2019-05-21T12:11:25.014Z,29.00
2019-05-21T12:13:53.717Z,28.50
2019-05-21T12:16:22.509Z,28.00
2019-05-21T12:18:51.265Z,28.70
2019-05-21T12:21:20.033Z,28.40
2019-05-21T12:23:48.738Z,29.50
2019-05-21T12:26:17.517Z,30.10
2019-05-21T12:28:46.240Z,29.20
2019-05-21T12:31:15.014Z,29.40
2019-05-21T12:33:43.730Z,32.70
2019-05-21T12:36:12.765Z,32.60
2019-05-21T12:38:41.412Z,30.60
2019-05-21T12:41:13.358Z,30.00
2019-05-21T12:43:40.557Z,31.40
2019-05-21T12:46:09.278Z,32.20
2019-05-21T12:48:38.008Z,33.20
2019-05-21T12:51:06.716Z,33.10
2019-05-21T12:53:35.498Z,34.80
2019-05-21T12:56:04.215Z,33.80
2019-05-21T12:58:33.003Z,34.10
2019-05-21T13:01:01.761Z,33.50
2019-05-21T13:03:30.518Z,34.10
2019-05-21T13:05:59.309Z,36.10
2019-05-21T13:08:28.013Z,35.80
2019-05-21T13:10:56.815Z,35.90
2019-05-21T13:13:25.529Z,35.00
2019-05-21T13:15:54.237Z,35.60
2019-05-21T13:18:23.050Z,36.20
2019-05-21T13:20:51.748Z,36.10
2019-05-21T13:23:20.466Z,35.50
2019-05-21T13:25:49.177Z,36.40
2019-05-21T13:28:17.990Z,36.20
2019-05-21T13:30:46.753Z,35.90
2019-05-21T13:33:15.480Z,36.00
2019-05-21T13:35:45.905Z,37.10
2019-05-21T13:38:14.688Z,37.20
2019-05-21T13:40:43.781Z,36.70
2019-05-21T13:43:12.499Z,36.90
2019-05-21T13:45:41.255Z,37.40
2019-05-21T13:48:09.938Z,37.10
2019-05-21T13:50:38.647Z,37.70
2019-05-21T13:53:07.441Z,38.40
2019-05-21T13:55:36.220Z,39.40
2019-05-21T13:58:05.206Z,38.10
2019-05-21T14:00:38.904Z,38.80
2019-05-21T14:03:07.777Z,38.20
2019-05-21T14:05:37.186Z,39.50
2019-05-21T14:08:05.978Z,38.10
2019-05-21T14:10:34.755Z,38.50
2019-05-21T14:13:03.834Z,37.60
2019-05-21T14:15:32.548Z,38.10
2019-05-21T14:18:01.330Z,38.60
2019-05-21T14:20:30.107Z,38.80
2019-05-21T14:22:58.825Z,38.90
2019-05-21T14:25:27.632Z,40.70
2019-05-21T14:27:56.389Z,41.50
2019-05-21T14:30:25.214Z,41.10
2019-05-21T14:32:53.920Z,42.80
2019-05-21T14:35:22.626Z,43.10
2019-05-21T14:37:51.423Z,43.50
2019-05-21T14:40:31.861Z,43.60
2019-05-21T14:42:59.687Z,42.60
2019-05-21T14:45:27.575Z,41.10
2019-05-21T14:47:54.397Z,41.70
2019-05-21T14:50:23.090Z,40.40
2019-05-21T14:52:52.449Z,39.70
2019-05-21T14:55:21.567Z,38.40
2019-05-21T14:57:50.348Z,38.70
2019-05-21T15:00:30.817Z,37.90
2019-05-21T15:02:59.549Z,38.40
2019-05-21T15:05:28.338Z,39.00
2019-05-21T15:07:57.057Z,39.50
2019-05-21T15:10:25.765Z,39.40
2019-05-21T15:12:54.488Z,38.80
2019-05-21T15:15:23.369Z,38.90
2019-05-21T15:17:52.099Z,39.30
2019-05-21T15:20:22.648Z,38.90
2019-05-21T15:22:51.422Z,39.20
2019-05-21T15:25:20.143Z,39.50
2019-05-21T15:27:48.846Z,40.30
2019-05-21T15:30:17.717Z,41.80
2019-05-21T15:32:46.446Z,41.90
2019-05-21T15:35:15.225Z,43.60
2019-05-21T15:37:45.140Z,43.70
2019-05-21T15:40:14.318Z,43.80
2019-05-21T15:42:43.038Z,44.80
2019-05-21T15:45:12.041Z,45.00
2019-05-21T15:47:40.762Z,45.60
2019-05-21T15:50:09.846Z,45.70
2019-05-21T15:52:38.634Z,46.20
2019-05-21T15:55:08.461Z,46.50
2019-05-21T15:57:56.433Z,46.30
2019-05-21T16:00:25.502Z,46.30
2019-05-21T16:02:54.185Z,46.90
2019-05-21T16:05:22.986Z,47.70
2019-05-21T16:07:51.779Z,47.10
2019-05-21T16:10:20.593Z,46.90
2019-05-21T16:12:49.318Z,47.70
2019-05-21T16:15:18.032Z,47.70
2019-05-21T16:17:46.803Z,48.40
2019-05-21T16:20:17.606Z,48.20
2019-05-21T16:22:46.310Z,48.40
2019-05-21T16:25:15.349Z,48.00
2019-05-21T16:27:44.078Z,48.80
2019-05-21T16:30:13.652Z,49.20
2019-05-21T16:32:42.457Z,49.60
2019-05-21T16:35:11.294Z,48.40
2019-05-21T16:37:40.080Z,48.90
2019-05-21T16:40:09.169Z,48.60
2019-05-21T16:42:37.880Z,48.80
2019-05-21T16:45:07.573Z,49.50
2019-05-21T16:47:45.553Z,49.30
2019-05-21T16:50:07.940Z,50.00
2019-05-21T16:52:38.122Z,50.20
2019-05-21T16:55:07.730Z,50.50
2019-05-21T16:57:36.455Z,50.20
2019-05-21T17:00:09.282Z,51.20
2019-05-21T17:02:38.078Z,50.40
2019-05-21T17:05:08.155Z,51.20
2019-05-21T17:07:36.977Z,51.90
2019-05-21T17:10:07.103Z,52.10
2019-05-21T17:12:35.845Z,51.90
2019-05-21T17:15:09.176Z,52.30
2019-05-21T17:17:37.949Z,51.80
2019-05-21T17:20:09.851Z,52.50
2019-05-21T17:22:38.549Z,52.90
2019-05-21T17:25:08.493Z,53.60
2019-05-21T17:27:37.286Z,54.40
2019-05-21T17:30:08.173Z,55.40
2019-05-21T17:32:37.167Z,56.60
2019-05-21T17:35:06.582Z,57.30
2019-05-21T17:37:35.389Z,57.80
2019-05-21T17:40:06.049Z,58.70
2019-05-21T17:42:34.876Z,58.50
2019-05-21T17:45:05.316Z,59.80
2019-05-21T17:47:34.106Z,60.80
2019-05-21T17:50:03.100Z,61.50
2019-05-21T17:52:31.996Z,62.20
2019-05-21T17:55:00.807Z,63.10
2019-05-21T17:57:30.689Z,63.40
2019-05-21T17:59:59.482Z,63.90
2019-05-21T18:02:30.377Z,64.30
2019-05-21T18:04:59.272Z,64.60
2019-05-21T18:07:27.979Z,65.20
2019-05-21T18:09:57.162Z,65.20
2019-05-21T18:12:32.039Z,66.20
2019-05-21T18:14:58.210Z,66.60
2019-05-21T18:17:28.860Z,68.00
2019-05-21T18:19:59.248Z,68.80
2019-05-21T18:22:30.002Z,69.70
2019-05-21T18:24:58.933Z,70.50
2019-05-21T18:27:27.895Z,71.30
2019-05-21T18:29:56.604Z,71.60
2019-05-21T18:32:25.322Z,72.50
2019-05-21T18:34:54.111Z,73.50
2019-05-21T18:37:23.083Z,74.10
2019-05-21T18:39:51.812Z,74.60
2019-05-21T18:42:22.530Z,75.00
2019-05-21T18:44:50.971Z,75.80
2019-05-21T18:47:19.702Z,76.60
2019-05-21T18:49:48.417Z,77.30
2019-05-21T18:52:17.136Z,77.30
2019-05-21T18:54:47.987Z,78.10
2019-05-21T18:57:16.441Z,78.70
2019-05-21T18:59:45.196Z,79.40
2019-05-21T19:02:14.880Z,80.70
2019-05-21T19:04:43.590Z,80.80
2019-05-21T19:07:12.876Z,81.00
2019-05-21T19:09:41.599Z,80.80
2019-05-21T19:12:10.414Z,80.50
2019-05-21T19:14:44.926Z,81.10
2019-05-21T19:17:09.560Z,81.60
2019-05-21T19:19:38.282Z,81.70
2019-05-21T19:22:07.154Z,82.00
2019-05-21T19:24:35.978Z,81.80
2019-05-21T19:27:04.765Z,82.30
2019-05-21T19:29:33.503Z,82.00
2019-05-21T19:32:02.219Z,82.70
2019-05-21T19:34:30.940Z,83.50
2019-05-21T19:36:59.740Z,84.20
2019-05-21T19:39:29.213Z,84.30
2019-05-21T19:41:58.004Z,85.00
2019-05-21T19:44:26.749Z,84.70
2019-05-21T19:46:55.456Z,85.20
2019-05-21T19:49:24.254Z,85.80
2019-05-21T19:51:53.029Z,86.90
2019-05-21T19:54:21.752Z,86.70
2019-05-21T19:56:50.854Z,87.10
2019-05-21T19:59:19.592Z,87.50
2019-05-21T20:01:50.173Z,87.80
2019-05-21T20:04:20.576Z,88.00
2019-05-21T20:06:49.340Z,88.10
2019-05-21T20:09:19.697Z,88.70
2019-05-21T20:11:48.434Z,89.30
2019-05-21T20:14:17.511Z,89.30
2019-05-21T20:16:46.453Z,89.80
2019-05-21T20:19:15.316Z,90.10
2019-05-21T20:21:44.686Z,90.00
2019-05-21T20:24:13.980Z,90.10
2019-05-21T20:26:43.458Z,89.60
2019-05-21T20:29:12.750Z,90.20
2019-05-21T20:31:41.562Z,90.30
2019-05-21T20:34:11.713Z,89.80
2019-05-21T20:36:40.995Z,90.50
2019-05-21T20:39:11.509Z,90.70
2019-05-21T20:41:40.896Z,90.50
2019-05-21T20:44:11.254Z,91.20
2019-05-21T20:46:40.962Z,91.00
2019-05-21T20:49:10.249Z,91.10
2019-05-21T20:51:40.418Z,91.30
2019-05-21T20:54:11.450Z,91.10
2019-05-21T20:56:40.191Z,91.10
2019-05-21T20:59:08.988Z,91.30
2019-05-21T21:01:38.166Z,91.90
2019-05-21T21:04:07.356Z,91.00
2019-05-21T21:06:37.324Z,91.70
2019-05-21T21:09:08.793Z,91.60
2019-05-21T21:11:38.030Z,91.90
2019-05-21T21:14:17.621Z,91.60
2019-05-21T21:16:39.004Z,92.10
2019-05-21T21:19:08.648Z,91.90
2019-05-21T21:21:37.844Z,91.80
2019-05-21T21:24:06.908Z,92.40
2019-05-21T21:26:35.673Z,92.30
2019-05-21T21:29:04.388Z,92.40
2019-05-21T21:31:33.188Z,92.00
2019-05-21T21:34:01.969Z,92.50
2019-05-21T21:36:30.762Z,92.30
2019-05-21T21:39:00.653Z,92.30
2019-05-21T21:41:29.840Z,92.60
2019-05-21T21:43:58.553Z,92.60
2019-05-21T21:46:27.300Z,92.50
2019-05-21T21:48:56.669Z,92.30
2019-05-21T21:51:25.652Z,92.30
2019-05-21T21:53:54.436Z,92.50
2019-05-21T21:56:23.452Z,92.30
2019-05-21T21:58:52.232Z,92.60
2019-05-21T22:01:28.069Z,93.00
2019-05-21T22:03:59.448Z,92.70
2019-05-21T22:06:30.375Z,92.40
2019-05-21T22:08:59.709Z,92.40
2019-05-21T22:11:29.081Z,92.50
2019-05-21T22:13:57.897Z,92.90
2019-05-21T22:16:26.615Z,93.10
2019-05-21T22:18:55.702Z,93.10
2019-05-21T22:21:24.491Z,93.10
2019-05-21T22:23:53.221Z,93.20
2019-05-21T22:26:21.976Z,93.30
2019-05-21T22:28:50.814Z,92.80
2019-05-21T22:31:19.610Z,93.70
2019-05-21T22:33:48.385Z,93.80
2019-05-21T22:36:17.162Z,94.10
2019-05-21T22:38:45.881Z,93.80
2019-05-21T22:41:14.585Z,93.50
2019-05-21T22:43:43.304Z,94.10
2019-05-21T22:46:12.078Z,93.90
2019-05-21T22:48:40.790Z,93.20
2019-05-21T22:51:09.769Z,92.90
2019-05-21T22:53:38.654Z,92.40
2019-05-21T22:56:07.706Z,93.90
2019-05-21T22:58:36.476Z,93.90
2019-05-21T23:01:07.023Z,93.00
2019-05-21T23:03:35.811Z,94.00
2019-05-21T23:06:04.514Z,94.50
2019-05-21T23:08:33.405Z,94.40
2019-05-21T23:11:02.110Z,94.60
2019-05-21T23:13:31.113Z,94.20
2019-05-21T23:15:59.842Z,94.10
2019-05-21T23:18:28.544Z,93.50
2019-05-21T23:20:58.912Z,94.00
2019-05-21T23:23:28.385Z,94.10
2019-05-21T23:25:58.321Z,94.00
2019-05-21T23:28:27.021Z,94.30
2019-05-21T23:30:55.921Z,94.20
2019-05-21T23:33:25.516Z,94.40
2019-05-21T23:35:54.414Z,94.30
2019-05-21T23:38:23.631Z,94.10
2019-05-21T23:40:52.329Z,94.40
2019-05-21T23:43:21.345Z,94.50
2019-05-21T23:45:50.244Z,94.60
2019-05-21T23:48:19.513Z,94.30
2019-05-21T23:50:48.604Z,95.40
2019-05-21T23:53:17.385Z,95.30
2019-05-21T23:55:46.652Z,95.20
2019-05-21T23:58:15.353Z,95.20
